Time;durP1;ratioP1;P1;durP2;ratioP2;P2;SDS_P1;SDS_P2;PMS_P1;PMS_P2;Temp;Humidity;BMP_temperature;BMP_pressure;BME280_temperature;BME280_humidity;BME280_pressure;Samples;Min_cycle;Max_cycle;Signal;HPM_P1;HPM_P2
2022/04/07 00:00:07;;;;;;;10.55;4.10;;;;;;;;;;5034507;28;20431;-70
2022/04/07 00:02:33;;;;;;;8.30;4.50;;;;;;;;;;5031978;28;20045;-70
2022/04/07 00:04:59;;;;;;;10.13;4.82;;;;;;;;;;5049631;28;20501;-70
2022/04/07 00:07:25;;;;;;;8.77;4.20;;;;;;;;;;5049149;28;20147;-71
2022/04/07 00:09:51;;;;;;;9.32;4.63;;;;;;;;;;5050764;28;20373;-71
2022/04/07 00:12:17;;;;;;;7.55;4.28;;;;;;;;;;5050875;28;20036;-71
2022/04/07 00:14:42;;;;;;;8.20;4.65;;;;;;;;;;5050656;28;20053;-71
2022/04/07 00:17:09;;;;;;;11.05;4.47;;;;;;;;;;5051146;28;20025;-71
2022/04/07 00:19:34;;;;;;;8.55;4.43;;;;;;;;;;5050953;28;20032;-71
2022/04/07 00:22:01;;;;;;;8.93;4.90;;;;;;;;;;5051482;28;20197;-72
2022/04/07 00:24:27;;;;;;;11.85;4.70;;;;;;;;;;5050702;28;20478;-71
2022/04/07 00:26:53;;;;;;;10.38;4.68;;;;;;;;;;5050454;28;20029;-71
2022/04/07 00:29:18;;;;;;;7.40;4.47;;;;;;;;;;5050542;28;20079;-71
2022/04/07 00:31:45;;;;;;;7.95;4.28;;;;;;;;;;5050716;28;20037;-71
2022/04/07 00:34:11;;;;;;;7.93;4.28;;;;;;;;;;5050700;28;20037;-71
2022/04/07 00:36:37;;;;;;;7.93;4.22;;;;;;;;;;5050461;28;20048;-71
2022/04/07 00:39:03;;;;;;;7.57;4.20;;;;;;;;;;5044544;28;20026;-71
2022/04/07 00:41:29;;;;;;;7.28;4.40;;;;;;;;;;5029156;28;20057;-71
2022/04/07 00:43:55;;;;;;;6.93;3.90;;;;;;;;;;5028581;28;20424;-71
2022/04/07 00:46:21;;;;;;;8.98;3.58;;;;;;;;;;5028555;28;20034;-71
2022/04/07 00:48:47;;;;;;;7.07;3.95;;;;;;;;;;5026509;28;20033;-71
2022/04/07 00:51:13;;;;;;;7.82;4.00;;;;;;;;;;5028372;28;20029;-71
2022/04/07 00:53:39;;;;;;;9.02;4.65;;;;;;;;;;5028298;28;20401;-70
2022/04/07 00:56:07;;;;;;;8.63;3.85;;;;;;;;;;5026398;28;20060;-70
2022/04/07 00:58:33;;;;;;;10.38;4.55;;;;;;;;;;5029278;28;20467;-71
2022/04/07 01:00:59;;;;;;;6.88;3.70;;;;;;;;;;5028584;28;20044;-71
2022/04/07 01:03:27;;;;;;;7.88;4.30;;;;;;;;;;5030004;28;20025;-71
2022/04/07 01:05:53;;;;;;;8.48;4.00;;;;;;;;;;5030063;28;20381;-71
2022/04/07 01:08:19;;;;;;;7.32;3.90;;;;;;;;;;5028300;28;20044;-71
2022/04/07 01:10:45;;;;;;;8.27;3.85;;;;;;;;;;5029462;28;20374;-71
2022/04/07 01:13:12;;;;;;;7.80;3.85;;;;;;;;;;5029569;28;20033;-70
2022/04/07 01:15:38;;;;;;;7.70;4.10;;;;;;;;;;5029662;28;20074;-71
2022/04/07 01:18:07;;;;;;;6.68;3.80;;;;;;;;;;5029789;28;20406;-71
2022/04/07 01:20:34;;;;;;;7.80;3.40;;;;;;;;;;5028152;28;20037;-71
2022/04/07 01:23:01;;;;;;;9.60;3.78;;;;;;;;;;5027857;28;20033;-71
2022/04/07 01:25:27;;;;;;;5.03;3.15;;;;;;;;;;5029301;28;20032;-71
2022/04/07 01:27:54;;;;;;;7.80;3.45;;;;;;;;;;5030053;28;20021;-71
2022/04/07 01:30:20;;;;;;;5.20;3.00;;;;;;;;;;5029387;28;20477;-71
2022/04/07 01:32:56;;;;;;;7.78;3.33;;;;;;;;;;5031890;28;20025;-71
2022/04/07 01:35:23;;;;;;;7.30;3.08;;;;;;;;;;5029412;28;20025;-70
2022/04/07 01:37:53;;;;;;;10.20;3.40;;;;;;;;;;5029139;28;20029;-70
2022/04/07 01:40:26;;;;;;;5.50;2.43;;;;;;;;;;5038533;28;20462;-70
2022/04/07 01:42:53;;;;;;;5.68;2.88;;;;;;;;;;5029284;28;20029;-71
2022/04/07 01:45:20;;;;;;;4.68;2.75;;;;;;;;;;5029060;28;20204;-70
2022/04/07 01:47:46;;;;;;;6.07;2.50;;;;;;;;;;5028771;28;20040;-70
2022/04/07 01:50:13;;;;;;;4.32;2.50;;;;;;;;;;5028111;28;20029;-70
2022/04/07 01:52:41;;;;;;;4.85;2.50;;;;;;;;;;5028352;28;20083;-72
2022/04/07 01:55:07;;;;;;;4.50;2.50;;;;;;;;;;5028068;28;20034;-71
2022/04/07 01:57:34;;;;;;;4.13;2.35;;;;;;;;;;5028635;28;20398;-71
2022/04/07 02:00:00;;;;;;;4.30;2.22;;;;;;;;;;5028659;28;20514;-72
2022/04/07 02:02:27;;;;;;;4.95;2.60;;;;;;;;;;5028927;28;20060;-70
2022/04/07 02:05:08;;;;;;;5.95;2.60;;;;;;;;;;5027886;28;20056;-71
2022/04/07 02:07:36;;;;;;;4.50;2.92;;;;;;;;;;5028865;28;20021;-71
2022/04/07 02:10:04;;;;;;;4.40;2.70;;;;;;;;;;5028743;28;20037;-70
2022/04/07 02:12:30;;;;;;;8.73;3.08;;;;;;;;;;5028950;28;20026;-71
2022/04/07 02:14:57;;;;;;;5.00;2.90;;;;;;;;;;5028910;28;20391;-71
2022/04/07 02:17:23;;;;;;;4.57;2.85;;;;;;;;;;5028489;28;20037;-72
2022/04/07 02:19:56;;;;;;;6.93;2.97;;;;;;;;;;5028621;28;20037;-70
2022/04/07 02:22:22;;;;;;;7.22;3.05;;;;;;;;;;5028614;28;20041;-71
2022/04/07 02:24:48;;;;;;;4.63;2.83;;;;;;;;;;5028544;28;20029;-72
2022/04/07 02:27:15;;;;;;;5.38;2.90;;;;;;;;;;5010149;28;20042;-69
2022/04/07 02:29:42;;;;;;;6.30;3.25;;;;;;;;;;5027628;28;20474;-71
2022/04/07 02:32:11;;;;;;;5.32;2.88;;;;;;;;;;5026785;28;20033;-70
2022/04/07 02:34:41;;;;;;;6.45;3.28;;;;;;;;;;5026664;28;20032;-70
2022/04/07 02:37:08;;;;;;;4.72;2.85;;;;;;;;;;5026783;28;20434;-69
2022/04/07 02:39:34;;;;;;;5.45;3.30;;;;;;;;;;5036797;28;20135;-71
2022/04/07 02:42:00;;;;;;;6.05;3.53;;;;;;;;;;5047754;28;20470;-70
2022/04/07 02:44:26;;;;;;;7.78;3.70;;;;;;;;;;5047672;28;20033;-71
2022/04/07 02:46:52;;;;;;;5.50;3.53;;;;;;;;;;5047977;28;20477;-71
2022/04/07 02:49:17;;;;;;;5.45;3.55;;;;;;;;;;5048608;28;20025;-72
2022/04/07 02:51:44;;;;;;;5.70;3.33;;;;;;;;;;5047913;28;20072;-71
2022/04/07 02:54:11;;;;;;;6.40;3.50;;;;;;;;;;5048030;28;20044;-71
2022/04/07 02:56:37;;;;;;;4.85;3.15;;;;;;;;;;5048229;28;20033;-71
2022/04/07 02:59:03;;;;;;;5.50;3.20;;;;;;;;;;5047984;28;20057;-71
2022/04/07 03:01:30;;;;;;;5.00;3.10;;;;;;;;;;5048135;28;20033;-71
2022/04/07 03:03:56;;;;;;;5.95;3.30;;;;;;;;;;5048492;28;20358;-71
2022/04/07 03:06:23;;;;;;;5.53;3.03;;;;;;;;;;5052034;28;20033;-71
2022/04/07 03:08:50;;;;;;;6.15;3.40;;;;;;;;;;5052021;28;20383;-71
2022/04/07 03:11:17;;;;;;;5.72;2.63;;;;;;;;;;5052068;28;20048;-71
2022/04/07 03:13:43;;;;;;;6.43;3.08;;;;;;;;;;5051906;28;20025;-72
2022/04/07 03:16:09;;;;;;;4.10;2.60;;;;;;;;;;5051997;28;20494;-72
2022/04/07 03:18:35;;;;;;;5.65;3.17;;;;;;;;;;5051940;28;20040;-71
2022/04/07 03:21:02;;;;;;;4.50;2.53;;;;;;;;;;5051990;28;20041;-71
2022/04/07 03:23:28;;;;;;;4.63;2.70;;;;;;;;;;5033801;28;20041;-71
2022/04/07 03:25:54;;;;;;;4.70;2.65;;;;;;;;;;5052057;28;20028;-72
2022/04/07 03:28:20;;;;;;;6.63;2.85;;;;;;;;;;5051887;28;20033;-71
2022/04/07 03:30:46;;;;;;;4.60;2.90;;;;;;;;;;5052025;28;20055;-71
2022/04/07 03:33:12;;;;;;;5.30;2.78;;;;;;;;;;5043570;28;20025;-72
2022/04/07 03:35:38;;;;;;;5.63;2.80;;;;;;;;;;5031933;28;20030;-71
2022/04/07 03:38:05;;;;;;;5.60;2.92;;;;;;;;;;5031415;28;20493;-72
2022/04/07 03:40:32;;;;;;;5.07;2.97;;;;;;;;;;5047733;28;20040;-69
2022/04/07 03:42:59;;;;;;;6.45;2.60;;;;;;;;;;5051409;28;20039;-71
2022/04/07 03:45:24;;;;;;;5.22;3.00;;;;;;;;;;5051392;28;20037;-71
2022/04/07 03:47:53;;;;;;;5.63;2.63;;;;;;;;;;5051223;28;20432;-72
2022/04/07 03:50:19;;;;;;;4.97;2.70;;;;;;;;;;5036187;28;20036;-71
2022/04/07 03:52:45;;;;;;;4.10;2.60;;;;;;;;;;5031481;28;20025;-70
2022/04/07 03:55:10;;;;;;;4.95;2.60;;;;;;;;;;5031218;28;20503;-70
2022/04/07 03:57:36;;;;;;;3.90;2.17;;;;;;;;;;5031117;28;20144;-71
2022/04/07 04:00:04;;;;;;;3.90;2.42;;;;;;;;;;5031462;28;20053;-70
2022/04/07 04:02:30;;;;;;;4.72;2.20;;;;;;;;;;5031220;28;20037;-71
2022/04/07 04:04:59;;;;;;;4.88;2.28;;;;;;;;;;5031034;28;20025;-71
2022/04/07 04:07:25;;;;;;;4.53;2.28;;;;;;;;;;5030832;28;20037;-70
2022/04/07 04:09:51;;;;;;;3.65;2.10;;;;;;;;;;5031180;28;20057;-72
2022/04/07 04:12:19;;;;;;;7.47;3.55;;;;;;;;;;5012858;28;20051;-72
2022/04/07 04:14:45;;;;;;;4.88;2.30;;;;;;;;;;5030799;28;20025;-71
2022/04/07 04:17:11;;;;;;;6.35;2.78;;;;;;;;;;5030654;28;20478;-72
2022/04/07 04:19:37;;;;;;;5.15;2.33;;;;;;;;;;5030241;28;20061;-71
2022/04/07 04:22:03;;;;;;;5.00;2.40;;;;;;;;;;5030824;28;20053;-70
2022/04/07 04:24:29;;;;;;;4.43;2.38;;;;;;;;;;5030789;28;20032;-70
2022/04/07 04:26:55;;;;;;;13.65;8.13;;;;;;;;;;5030736;28;20171;-70
2022/04/07 04:29:21;;;;;;;7.22;4.20;;;;;;;;;;5012046;28;20471;-71
2022/04/07 04:31:47;;;;;;;5.07;2.92;;;;;;;;;;5030581;28;20029;-71
2022/04/07 04:34:15;;;;;;;6.43;2.88;;;;;;;;;;5011426;28;20057;-72
2022/04/07 04:36:41;;;;;;;6.68;3.35;;;;;;;;;;5030066;28;20029;-70
2022/04/07 04:39:07;;;;;;;5.35;2.78;;;;;;;;;;5031406;28;20141;-72
2022/04/07 04:41:33;;;;;;;6.35;2.80;;;;;;;;;;5030069;28;20068;-71
2022/04/07 04:44:00;;;;;;;4.50;2.53;;;;;;;;;;5011429;28;20161;-71
2022/04/07 04:46:27;;;;;;;5.15;2.42;;;;;;;;;;5030366;28;20029;-70
2022/04/07 04:48:53;;;;;;;6.03;2.45;;;;;;;;;;5030090;28;20653;-71
2022/04/07 04:51:43;;;;;;;4.40;2.28;;;;;;;;;;5030631;28;20033;-71
2022/04/07 04:54:11;;;;;;;6.10;2.67;;;;;;;;;;5012953;28;20037;-72
2022/04/07 04:56:37;;;;;;;5.75;2.20;;;;;;;;;;5030035;28;20041;-72
2022/04/07 04:59:02;;;;;;;4.75;2.33;;;;;;;;;;5025542;28;20049;-71
2022/04/07 05:01:28;;;;;;;4.40;2.20;;;;;;;;;;5029696;28;20072;-71
2022/04/07 05:03:54;;;;;;;3.95;2.17;;;;;;;;;;5031557;28;20505;-72
2022/04/07 05:06:20;;;;;;;5.03;1.90;;;;;;;;;;5034180;28;20033;-72
2022/04/07 05:08:46;;;;;;;5.30;1.90;;;;;;;;;;5033614;28;20057;-73
2022/04/07 05:11:12;;;;;;;4.43;1.90;;;;;;;;;;5015298;28;20048;-72
2022/04/07 05:13:38;;;;;;;2.90;1.73;;;;;;;;;;5029589;28;20053;-72
2022/04/07 05:16:05;;;;;;;3.58;1.50;;;;;;;;;;5029581;28;20053;-71
2022/04/07 05:18:31;;;;;;;5.30;1.95;;;;;;;;;;5029328;28;20036;-72
2022/04/07 05:20:57;;;;;;;5.35;1.77;;;;;;;;;;5029330;28;20041;-72
2022/04/07 05:23:23;;;;;;;3.72;1.65;;;;;;;;;;5029370;28;20466;-72
2022/04/07 05:25:49;;;;;;;20.73;11.30;;;;;;;;;;5037629;28;20053;-72
2022/04/07 05:28:14;;;;;;;2.47;2.00;;;;;;;;;;5028447;28;20109;-71
2022/04/07 05:30:40;;;;;;;2.95;1.67;;;;;;;;;;5029509;28;20415;-71
2022/04/07 05:33:06;;;;;;;2.35;1.55;;;;;;;;;;5028955;28;20060;-71
2022/04/07 05:35:32;;;;;;;2.55;1.55;;;;;;;;;;5040401;28;20076;-71
2022/04/07 05:38:02;;;;;;;2.38;1.40;;;;;;;;;;5011070;28;20069;-70
2022/04/07 05:40:29;;;;;;;2.33;1.42;;;;;;;;;;5031689;28;20025;-71
2022/04/07 05:42:56;;;;;;;2.25;1.40;;;;;;;;;;5028901;28;20453;-71
2022/04/07 05:45:24;;;;;;;2.60;1.42;;;;;;;;;;5028379;28;20029;-70
2022/04/07 05:47:50;;;;;;;2.40;1.25;;;;;;;;;;5021209;28;20029;-72
2022/04/07 05:50:17;;;;;;;3.10;1.58;;;;;;;;;;5028938;28;20064;-71
2022/04/07 05:52:43;;;;;;;3.03;1.58;;;;;;;;;;5028828;28;20025;-71
2022/04/07 05:55:09;;;;;;;2.30;1.40;;;;;;;;;;5028831;28;20109;-71
2022/04/07 05:57:34;;;;;;;2.17;1.48;;;;;;;;;;5028756;28;20407;-72
2022/04/07 06:00:12;;;;;;;1.95;1.60;;;;;;;;;;5031705;28;20060;-72
2022/04/07 06:02:42;;;;;;;1.88;1.40;;;;;;;;;;5029227;28;20029;-70
2022/04/07 06:05:09;;;;;;;1.40;1.30;;;;;;;;;;4995341;28;20490;-71
2022/04/07 06:07:36;;;;;;;5.13;2.92;;;;;;;;;;5038977;28;20040;-71
2022/04/07 06:10:04;;;;;;;4.07;2.67;;;;;;;;;;5033133;28;20396;-71
2022/04/07 06:12:30;;;;;;;2.50;1.67;;;;;;;;;;5013535;28;20045;-71
2022/04/07 06:14:56;;;;;;;4.43;1.70;;;;;;;;;;5029721;28;20032;-72
2022/04/07 06:17:36;;;;;;;2.53;1.70;;;;;;;;;;5028117;28;20060;-71
2022/04/07 06:20:03;;;;;;;2.97;1.38;;;;;;;;;;5027417;28;20029;-71
2022/04/07 06:22:29;;;;;;;2.13;1.40;;;;;;;;;;5025619;28;20029;-72
2022/04/07 06:24:55;;;;;;;2.00;1.30;;;;;;;;;;5028330;28;20049;-71
2022/04/07 06:27:20;;;;;;;1.73;1.40;;;;;;;;;;5028431;28;20509;-71
2022/04/07 06:29:46;;;;;;;1.65;1.40;;;;;;;;;;5028199;28;20064;-71
2022/04/07 06:32:12;;;;;;;3.40;1.60;;;;;;;;;;5028266;28;20064;-71
2022/04/07 06:34:39;;;;;;;3.63;1.60;;;;;;;;;;5028398;28;20068;-71
2022/04/07 06:37:05;;;;;;;4.22;1.83;;;;;;;;;;5009765;28;20044;-70
2022/04/07 06:39:33;;;;;;;2.35;1.58;;;;;;;;;;5029817;28;20455;-71
2022/04/07 06:42:17;;;;;;;2.22;1.60;;;;;;;;;;5033028;28;20032;-71
2022/04/07 06:44:46;;;;;;;5.10;1.70;;;;;;;;;;5013856;28;20057;-71
2022/04/07 06:47:18;;;;;;;3.35;1.80;;;;;;;;;;5018042;28;20049;-71
2022/04/07 06:49:48;;;;;;;2.38;1.50;;;;;;;;;;5015145;28;20386;-70
2022/04/07 06:52:14;;;;;;;4.15;1.98;;;;;;;;;;5032652;28;20029;-71
2022/04/07 06:54:39;;;;;;;13.45;7.72;;;;;;;;;;5031475;28;20064;-71
2022/04/07 06:57:05;;;;;;;5.07;1.70;;;;;;;;;;5013190;28;20072;-71
2022/04/07 06:59:31;;;;;;;6.35;1.98;;;;;;;;;;5031969;28;20486;-72
2022/04/07 07:01:57;;;;;;;3.47;1.50;;;;;;;;;;5031739;28;20065;-73
2022/04/07 07:04:23;;;;;;;5.00;1.70;;;;;;;;;;5031849;28;20049;-71
2022/04/07 07:06:49;;;;;;;2.28;1.40;;;;;;;;;;5031939;28;20104;-71
2022/04/07 07:09:15;;;;;;;2.60;1.40;;;;;;;;;;5032357;28;20495;-71
2022/04/07 07:11:43;;;;;;;2.80;1.25;;;;;;;;;;5031819;28;20057;-73
2022/04/07 07:14:09;;;;;;;3.35;1.30;;;;;;;;;;5031699;28;20036;-73
2022/04/07 07:16:35;;;;;;;1.40;1.20;;;;;;;;;;5031955;28;20413;-73
2022/04/07 07:19:01;;;;;;;1.92;1.00;;;;;;;;;;5030635;28;20120;-73
2022/04/07 07:21:27;;;;;;;1.38;1.08;;;;;;;;;;5031290;28;20556;-73
2022/04/07 07:23:55;;;;;;;0.98;0.90;;;;;;;;;;5031696;28;20112;-73
2022/04/07 07:26:21;;;;;;;1.42;0.93;;;;;;;;;;5032055;28;20036;-71
2022/04/07 07:28:47;;;;;;;0.80;0.80;;;;;;;;;;5013783;28;20068;-72
2022/04/07 07:31:13;;;;;;;2.65;0.88;;;;;;;;;;5034406;28;20040;-72
2022/04/07 07:33:39;;;;;;;2.28;1.35;;;;;;;;;;5031846;28;20049;-73
2022/04/07 07:36:04;;;;;;;3.33;1.27;;;;;;;;;;5013910;28;20129;-72
2022/04/07 07:38:30;;;;;;;3.25;1.25;;;;;;;;;;5032210;28;20056;-73
2022/04/07 07:40:56;;;;;;;1.95;1.02;;;;;;;;;;5046613;28;20449;-72
2022/04/07 07:43:22;;;;;;;0.90;0.90;;;;;;;;;;5031883;28;20059;-73
2022/04/07 07:45:50;;;;;;;1.63;0.75;;;;;;;;;;5031743;28;20072;-73
2022/04/07 07:48:18;;;;;;;0.90;0.77;;;;;;;;;;5031846;28;20029;-73
2022/04/07 07:50:45;;;;;;;0.85;0.85;;;;;;;;;;5033573;28;20104;-74
2022/04/07 07:53:11;;;;;;;0.88;0.75;;;;;;;;;;5031291;28;20032;-75
2022/04/07 07:55:38;;;;;;;1.05;0.88;;;;;;;;;;5031046;28;20049;-73
2022/04/07 07:58:04;;;;;;;0.75;0.57;;;;;;;;;;5024998;28;20524;-73
2022/04/07 08:00:30;;;;;;;1.80;0.90;;;;;;;;;;5028996;28;20045;-74
2022/04/07 08:02:56;;;;;;;0.60;0.60;;;;;;;;;;5028841;28;20390;-73
2022/04/07 08:05:21;;;;;;;2.20;0.80;;;;;;;;;;5028316;28;20542;-74
2022/04/07 08:07:59;;;;;;;0.75;0.57;;;;;;;;;;5028566;28;20033;-72
2022/04/07 08:10:25;;;;;;;1.20;0.88;;;;;;;;;;5004460;28;20049;-72
2022/04/07 08:12:51;;;;;;;1.38;0.93;;;;;;;;;;5028081;28;20029;-74
2022/04/07 08:15:17;;;;;;;3.72;2.20;;;;;;;;;;5028366;28;20033;-73
2022/04/07 08:17:43;;;;;;;0.98;0.85;;;;;;;;;;5028792;28;20060;-74
2022/04/07 08:20:10;;;;;;;0.80;0.80;;;;;;;;;;5028937;28;20049;-74
2022/04/07 08:22:35;;;;;;;0.85;0.80;;;;;;;;;;5011195;28;20037;-73
2022/04/07 08:25:02;;;;;;;1.20;0.80;;;;;;;;;;5028284;28;20379;-74
2022/04/07 08:27:31;;;;;;;2.08;0.90;;;;;;;;;;5028440;28;20033;-74
2022/04/07 08:29:57;;;;;;;0.98;0.65;;;;;;;;;;5009774;28;20382;-75
2022/04/07 08:32:23;;;;;;;1.33;0.90;;;;;;;;;;5010382;28;20041;-74
2022/04/07 08:34:49;;;;;;;2.05;0.70;;;;;;;;;;5011005;28;20045;-73
2022/04/07 08:37:14;;;;;;;0.93;0.57;;;;;;;;;;5028569;28;20021;-73
2022/04/07 08:39:40;;;;;;;1.00;0.90;;;;;;;;;;5031153;28;20041;-73
2022/04/07 08:42:06;;;;;;;0.93;0.60;;;;;;;;;;5018035;28;20056;-73
2022/04/07 08:44:33;;;;;;;0.85;0.65;;;;;;;;;;5008942;28;20540;-74
2022/04/07 08:47:00;;;;;;;1.08;0.70;;;;;;;;;;5027043;28;20041;-72
2022/04/07 08:49:31;;;;;;;0.75;0.60;;;;;;;;;;5028778;28;20033;-73
2022/04/07 08:51:58;;;;;;;0.55;0.55;;;;;;;;;;5028106;28;20034;-73
2022/04/07 08:54:24;;;;;;;1.02;0.77;;;;;;;;;;5028012;28;20046;-72
2022/04/07 08:56:50;;;;;;;0.85;0.60;;;;;;;;;;5028234;28;20025;-73
2022/04/07 08:59:16;;;;;;;0.30;0.30;;;;;;;;;;5028443;28;20120;-72
2022/04/07 09:01:43;;;;;;;0.82;0.60;;;;;;;;;;5009242;28;20513;-73
2022/04/07 09:04:13;;;;;;;0.80;0.60;;;;;;;;;;5024078;28;20044;-72
2022/04/07 09:06:41;;;;;;;0.90;0.43;;;;;;;;;;5023893;28;20032;-72
2022/04/07 09:09:11;;;;;;;1.45;0.60;;;;;;;;;;5008117;28;20033;-74
2022/04/07 09:11:37;;;;;;;9.70;5.10;;;;;;;;;;5026741;28;20045;-74
2022/04/07 09:14:03;;;;;;;2.55;1.55;;;;;;;;;;5023812;28;20033;-73
2022/04/07 09:16:30;;;;;;;2.28;0.90;;;;;;;;;;5026614;28;20037;-74
2022/04/07 09:18:56;;;;;;;2.35;0.88;;;;;;;;;;5027156;28;20033;-74
2022/04/07 09:21:27;;;;;;;1.35;0.90;;;;;;;;;;5009818;28;20065;-73
2022/04/07 09:23:58;;;;;;;0.75;0.68;;;;;;;;;;5027276;28;20048;-73
2022/04/07 09:26:24;;;;;;;0.50;0.50;;;;;;;;;;5011606;28;20444;-73
2022/04/07 09:28:55;;;;;;;0.50;0.50;;;;;;;;;;5026931;28;20516;-73
2022/04/07 09:31:30;;;;;;;0.50;0.50;;;;;;;;;;5027390;28;20044;-73
2022/04/07 09:33:57;;;;;;;1.55;0.65;;;;;;;;;;5026583;28;20025;-73
2022/04/07 09:36:23;;;;;;;0.98;0.52;;;;;;;;;;5009924;28;20044;-73
2022/04/07 09:38:53;;;;;;;0.43;0.43;;;;;;;;;;5026173;28;20453;-74
2022/04/07 09:41:20;;;;;;;3.10;0.70;;;;;;;;;;5026960;28;20029;-73
2022/04/07 09:43:47;;;;;;;3.83;0.80;;;;;;;;;;5008128;28;20037;-72
2022/04/07 09:46:16;;;;;;;1.13;0.65;;;;;;;;;;5027303;28;20052;-70
2022/04/07 09:49:13;;;;;;;1.10;0.93;;;;;;;;;;5030994;28;20040;-71
2022/04/07 09:51:51;;;;;;;0.68;0.60;;;;;;;;;;5031690;28;20036;-71
2022/04/07 09:54:18;;;;;;;0.57;0.57;;;;;;;;;;5026978;28;20055;-70
2022/04/07 09:56:46;;;;;;;0.98;0.68;;;;;;;;;;5029958;28;20032;-71
2022/04/07 09:59:16;;;;;;;10.70;5.97;;;;;;;;;;5027448;28;20532;-71
2022/04/07 10:01:43;;;;;;;1.33;0.80;;;;;;;;;;5026575;28;20402;-72
2022/04/07 10:04:10;;;;;;;1.25;0.77;;;;;;;;;;5027612;28;20037;-71
2022/04/07 10:06:39;;;;;;;2.50;1.25;;;;;;;;;;5029346;28;20048;-72
2022/04/07 10:09:07;;;;;;;1.20;0.93;;;;;;;;;;5026641;28;20044;-71
2022/04/07 10:11:33;;;;;;;2.30;0.80;;;;;;;;;;5026729;28;20034;-72
2022/04/07 10:14:00;;;;;;;0.50;0.50;;;;;;;;;;5026156;28;20033;-72
2022/04/07 10:16:27;;;;;;;0.38;0.38;;;;;;;;;;5026935;28;20375;-71
2022/04/07 10:18:55;;;;;;;1.65;0.50;;;;;;;;;;5032533;28;20025;-69
2022/04/07 10:21:46;;;;;;;2.05;0.70;;;;;;;;;;5041683;28;20036;-70
2022/04/07 10:24:31;;;;;;;0.30;0.30;;;;;;;;;;5040740;28;20013;-69
2022/04/07 10:27:00;;;;;;;0.95;0.45;;;;;;;;;;5034765;28;20021;-71
2022/04/07 10:29:28;;;;;;;1.30;0.45;;;;;;;;;;5029530;28;20025;-71
2022/04/07 10:32:12;;;;;;;0.90;0.52;;;;;;;;;;5026675;28;20414;-72
2022/04/07 10:34:53;;;;;;;0.52;0.52;;;;;;;;;;5026747;28;20033;-70
2022/04/07 10:37:43;;;;;;;0.32;0.32;;;;;;;;;;5026871;28;20041;-71
2022/04/07 10:40:35;;;;;;;0.32;0.32;;;;;;;;;;5029228;28;20553;-71
2022/04/07 10:43:07;;;;;;;0.40;0.30;;;;;;;;;;5015847;28;20053;-70
2022/04/07 10:45:34;;;;;;;1.65;0.60;;;;;;;;;;5026404;28;20052;-71
2022/04/07 10:48:18;;;;;;;0.60;0.60;;;;;;;;;;5025987;28;20040;-71
2022/04/07 10:50:49;;;;;;;7.97;5.07;;;;;;;;;;5008144;28;20038;-71
2022/04/07 10:53:19;;;;;;;;;;;;;;;;;;5009133;28;20048;-71
2022/04/07 10:55:59;;;;;;;1.65;0.80;;;;;;;;;;5026258;28;19924;-70
2022/04/07 10:58:48;;;;;;;0.77;0.47;;;;;;;;;;5011204;28;20041;-69
2022/04/07 11:01:29;;;;;;;0.90;0.52;;;;;;;;;;5025952;28;20029;-70
2022/04/07 11:04:23;;;;;;;2.65;0.50;;;;;;;;;;5024226;28;20517;-71
2022/04/07 11:07:07;;;;;;;0.30;0.30;;;;;;;;;;5023438;28;20739;-70
2022/04/07 11:09:58;;;;;;;0.85;0.47;;;;;;;;;;5026251;28;20033;-71
2022/04/07 11:12:24;;;;;;;1.02;0.38;;;;;;;;;;5010987;28;20046;-70
2022/04/07 11:14:53;;;;;;;0.75;0.50;;;;;;;;;;5025480;28;20516;-71
2022/04/07 11:17:43;;;;;;;1.88;0.60;;;;;;;;;;5017608;28;20069;-72
2022/04/07 11:20:20;;;;;;;0.73;0.40;;;;;;;;;;5007103;28;20495;-70
2022/04/07 11:23:05;;;;;;;0.98;0.82;;;;;;;;;;5023590;28;20038;-70
2022/04/07 11:25:36;;;;;;;0.40;0.40;;;;;;;;;;5027191;28;20037;-71
2022/04/07 11:28:15;;;;;;;0.52;0.52;;;;;;;;;;5029658;28;20037;-71
2022/04/07 11:30:51;;;;;;;2.03;0.50;;;;;;;;;;5030157;28;20381;-70
2022/04/07 11:33:25;;;;;;;10.02;6.07;;;;;;;;;;5029699;28;20029;-70
2022/04/07 11:36:01;;;;;;;1.55;1.00;;;;;;;;;;5029215;28;20041;-71
2022/04/07 11:38:35;;;;;;;2.13;0.50;;;;;;;;;;5014540;28;20030;-69
2022/04/07 11:41:05;;;;;;;0.73;0.57;;;;;;;;;;5041280;28;20552;-69
2022/04/07 11:43:33;;;;;;;0.60;0.60;;;;;;;;;;5029339;28;20526;-69
2022/04/07 11:45:59;;;;;;;0.68;0.60;;;;;;;;;;5028715;28;20025;-68
2022/04/07 11:48:31;;;;;;;0.70;0.57;;;;;;;;;;5028950;28;20505;-70
2022/04/07 11:51:00;;;;;;;0.73;0.60;;;;;;;;;;5035428;28;20410;-72
2022/04/07 11:53:29;;;;;;;0.55;0.52;;;;;;;;;;5018155;28;20033;-71
2022/04/07 11:56:11;;;;;;;1.38;0.60;;;;;;;;;;5028366;28;20026;-71
2022/04/07 11:58:40;;;;;;;1.55;0.63;;;;;;;;;;5009141;28;20509;-71
2022/04/07 12:01:11;;;;;;;0.80;0.52;;;;;;;;;;5010434;28;20056;-69
2022/04/07 12:03:40;;;;;;;1.55;0.40;;;;;;;;;;5028544;28;20033;-70
2022/04/07 12:06:07;;;;;;;0.70;0.40;;;;;;;;;;5028856;28;20025;-69
2022/04/07 12:08:32;;;;;;;1.42;0.40;;;;;;;;;;5028807;28;20033;-72
2022/04/07 12:10:59;;;;;;;1.92;0.57;;;;;;;;;;5029014;28;20493;-70
2022/04/07 12:13:25;;;;;;;0.82;0.82;;;;;;;;;;5029015;28;20049;-69
2022/04/07 12:15:51;;;;;;;1.77;0.70;;;;;;;;;;5024103;28;20488;-70
2022/04/07 12:18:26;;;;;;;0.40;0.40;;;;;;;;;;5009300;28;20414;-71
2022/04/07 12:21:00;;;;;;;7.15;0.75;;;;;;;;;;5030069;28;20033;-71
2022/04/07 12:23:29;;;;;;;1.02;0.52;;;;;;;;;;5011363;28;20049;-71
2022/04/07 12:26:00;;;;;;;0.52;0.38;;;;;;;;;;5010390;28;20254;-69
2022/04/07 12:28:33;;;;;;;;;;;;;;;;;;5011844;28;20041;-69
2022/04/07 12:30:59;;;;;;;0.98;0.38;;;;;;;;;;5012113;28;19909;-70
2022/04/07 12:33:45;;;;;;;0.45;0.45;;;;;;;;;;5011542;28;20522;-70
2022/04/07 12:36:16;;;;;;;0.50;0.50;;;;;;;;;;5011968;28;20052;-72
2022/04/07 12:38:59;;;;;;;1.45;0.50;;;;;;;;;;5033082;28;20395;-70
2022/04/07 12:41:35;;;;;;;1.48;0.47;;;;;;;;;;5038219;28;20040;-69
2022/04/07 12:44:01;;;;;;;0.55;0.55;;;;;;;;;;5030548;28;20030;-72
2022/04/07 12:46:51;;;;;;;0.88;0.40;;;;;;;;;;5030807;28;20415;-71
2022/04/07 12:49:34;;;;;;;0.52;0.52;;;;;;;;;;5018779;28;20056;-71
2022/04/07 12:52:18;;;;;;;1.45;0.57;;;;;;;;;;5030918;28;20021;-71
2022/04/07 12:54:58;;;;;;;0.47;0.47;;;;;;;;;;5030375;28;20411;-71
2022/04/07 12:57:55;;;;;;;1.98;0.70;;;;;;;;;;5030346;28;20036;-70
2022/04/07 13:00:21;;;;;;;2.05;1.00;;;;;;;;;;5020445;28;20052;-71
2022/04/07 13:02:49;;;;;;;3.75;1.00;;;;;;;;;;5013015;28;20053;-70
2022/04/07 13:05:24;;;;;;;5.40;2.70;;;;;;;;;;5029685;28;20041;-70
2022/04/07 13:07:57;;;;;;;18.40;12.45;;;;;;;;;;5029860;28;20036;-70
2022/04/07 13:10:23;;;;;;;3.67;1.30;;;;;;;;;;5011468;28;20497;-71
2022/04/07 13:12:50;;;;;;;5.00;1.17;;;;;;;;;;5030216;28;20367;-71
2022/04/07 13:15:16;;;;;;;3.22;1.10;;;;;;;;;;5012043;28;20049;-70
2022/04/07 13:17:43;;;;;;;1.73;0.90;;;;;;;;;;5029923;28;20040;-70
2022/04/07 13:20:10;;;;;;;1.00;0.80;;;;;;;;;;5028747;28;20474;-72
2022/04/07 13:22:36;;;;;;;0.70;0.70;;;;;;;;;;5029669;28;20418;-73
2022/04/07 13:25:03;;;;;;;2.65;1.15;;;;;;;;;;5029295;28;20060;-71
2022/04/07 13:27:29;;;;;;;1.02;0.85;;;;;;;;;;5029580;28;20040;-73
2022/04/07 13:29:55;;;;;;;3.45;0.80;;;;;;;;;;5029347;28;20025;-73
2022/04/07 13:32:24;;;;;;;1.15;0.47;;;;;;;;;;5029389;28;20033;-73
2022/04/07 13:34:54;;;;;;;0.98;0.70;;;;;;;;;;5026548;28;20040;-72
2022/04/07 13:37:21;;;;;;;1.80;0.93;;;;;;;;;;5027050;28;20041;-71
2022/04/07 13:39:47;;;;;;;3.25;0.95;;;;;;;;;;5029010;28;20041;-71
2022/04/07 13:42:13;;;;;;;1.48;0.70;;;;;;;;;;5030921;28;20517;-73
2022/04/07 13:44:39;;;;;;;1.20;0.70;;;;;;;;;;5028186;28;20365;-72
2022/04/07 13:47:05;;;;;;;1.27;0.80;;;;;;;;;;5028379;28;20036;-71
2022/04/07 13:49:32;;;;;;;3.25;0.80;;;;;;;;;;5028754;28;20044;-72
2022/04/07 13:52:00;;;;;;;1.88;0.82;;;;;;;;;;5010385;28;20048;-70
2022/04/07 13:54:28;;;;;;;2.03;0.70;;;;;;;;;;5028507;28;20036;-72
2022/04/07 13:56:54;;;;;;;2.53;0.80;;;;;;;;;;5028281;28;20032;-70
2022/04/07 13:59:20;;;;;;;2.08;0.82;;;;;;;;;;5029356;28;20033;-70
2022/04/07 14:01:46;;;;;;;1.02;0.63;;;;;;;;;;5013450;28;20069;-71
2022/04/07 14:04:12;;;;;;;3.75;0.85;;;;;;;;;;5028386;28;20036;-71
2022/04/07 14:06:42;;;;;;;1.27;0.80;;;;;;;;;;5028259;28;20037;-71
2022/04/07 14:09:12;;;;;;;1.38;0.65;;;;;;;;;;5026046;28;20028;-71
2022/04/07 14:11:39;;;;;;;0.98;0.80;;;;;;;;;;5028492;28;20038;-71
2022/04/07 14:14:06;;;;;;;2.55;0.80;;;;;;;;;;5026198;28;20033;-71
2022/04/07 14:16:33;;;;;;;0.60;0.60;;;;;;;;;;5028317;28;20029;-71
2022/04/07 14:19:00;;;;;;;3.25;0.90;;;;;;;;;;5028184;28;20037;-71
2022/04/07 14:21:27;;;;;;;1.50;0.98;;;;;;;;;;5028541;28;20033;-71
2022/04/07 14:23:55;;;;;;;5.68;2.05;;;;;;;;;;5009848;28;20037;-70
2022/04/07 14:26:23;;;;;;;7.65;4.40;;;;;;;;;;5027531;28;20022;-71
2022/04/07 14:28:49;;;;;;;4.05;1.75;;;;;;;;;;5027163;28;20033;-69
2022/04/07 14:31:15;;;;;;;3.20;0.95;;;;;;;;;;5028190;28;20087;-71
2022/04/07 14:33:44;;;;;;;2.60;0.88;;;;;;;;;;5027733;28;20050;-72
2022/04/07 14:36:12;;;;;;;1.92;0.80;;;;;;;;;;5023899;28;20422;-70
2022/04/07 14:38:38;;;;;;;1.52;0.90;;;;;;;;;;5027499;28;20025;-72
2022/04/07 14:41:04;;;;;;;5.30;1.17;;;;;;;;;;5017408;28;20056;-71
2022/04/07 14:43:30;;;;;;;2.17;0.93;;;;;;;;;;5025614;28;20443;-71
2022/04/07 14:45:56;;;;;;;3.35;1.10;;;;;;;;;;5008179;28;20482;-71
2022/04/07 14:48:22;;;;;;;1.95;1.00;;;;;;;;;;5007940;28;20410;-71
2022/04/07 14:50:48;;;;;;;2.88;0.93;;;;;;;;;;5025493;28;20407;-71